Oskemen/Ust-Kamenogorsk Airport

Airport
ICAO code: 
UASK
IATA Code: 
UKK
Summary
ICAO Region: 
APAC
Territory: 
Location: 
Oskemen,
Serving: 
Oskemen
Elevation: 
939 ft
Coordinates: 
Aerial View: 
50° 1' 53.627" N, 82° 30' 4.12" E
Airport BS: 
Bird Strike
Airport CFIT: 
Altimeter Temperature Error Correction
Metar
Observation
UASK 070300Z 13003MPS 3000 SN OVC027 00/M01 Q1023 NOSIG RMK QFE742/0989
Station
UST KAMENOGORSK
Date/Time
2021-12-07 03:00:00
Wind direction
130°
Lowest cloud amount
overcast
Temperature
0°C
Dew point
-1°C
Humidity
92%
QNH
1023 hPa
Weather condition
n/a

Description

Regional airport serving Oskemen, the capital city of the East Kazakhstan Province.

Climatology

Cold Semi-arid climate (Köppen climate classification BSk). - Hot, sometimes extremely hot summers and cold, sometimes very cold winters. Some snowfall during the winter. Areas featuring cold semi-arid climates are sometimes subject to major temperature swings during a 24 hour period.

Runways

Designator Length Width Surface Rops
12L/30R 1856 61 GRS No/No
12/30 2510 42 ASP No/No
Airport map: 
Aerial View: 

SKYbrary Partners:

Safety knowledge contributed by: